createdAt,value
2022-09-18T00:01:19.896Z,6.50
2022-09-18T00:03:47.805Z,9.80
2022-09-18T00:06:17.049Z,10.90
2022-09-18T00:08:44.816Z,8.60
2022-09-18T00:11:14.112Z,6.10
2022-09-18T00:13:44.620Z,8.20
2022-09-18T00:16:13.775Z,8.50
2022-09-18T00:18:42.200Z,4.70
2022-09-18T00:21:09.878Z,5.70
2022-09-18T00:23:37.949Z,7.30
2022-09-18T00:26:06.237Z,9.20
2022-09-18T00:28:34.618Z,7.80
2022-09-18T00:31:09.941Z,8.80
2022-09-18T00:33:37.925Z,8.60
2022-09-18T00:36:10.130Z,11.40
2022-09-18T00:38:38.041Z,6.80
2022-09-18T00:41:08.494Z,6.80
2022-09-18T00:43:36.756Z,4.50
2022-09-18T00:46:23.502Z,5.70
2022-09-18T00:49:05.333Z,4.30
2022-09-18T00:51:34.974Z,5.60
2022-09-18T00:54:11.733Z,8.20
2022-09-18T00:56:40.106Z,5.50
2022-09-18T00:59:10.741Z,6.50
2022-09-18T01:01:38.550Z,6.30
2022-09-18T01:04:10.673Z,8.90
2022-09-18T01:06:54.214Z,5.30
2022-09-18T01:09:31.739Z,6.90
2022-09-18T01:12:10.777Z,5.00
2022-09-18T01:14:44.584Z,4.40
2022-09-18T01:17:27.845Z,4.20
2022-09-18T01:19:55.368Z,9.60
2022-09-18T01:22:30.560Z,4.80
2022-09-18T01:25:02.150Z,5.60
2022-09-18T01:27:29.841Z,6.00
2022-09-18T01:30:02.961Z,5.40
2022-09-18T01:32:38.793Z,7.20
2022-09-18T01:35:18.666Z,6.50
2022-09-18T01:37:57.585Z,6.60
2022-09-18T01:40:29.282Z,4.30
2022-09-18T01:42:59.757Z,6.10
2022-09-18T01:45:32.650Z,6.60
2022-09-18T01:48:02.159Z,5.70
2022-09-18T01:50:31.768Z,6.40
2022-09-18T01:53:03.316Z,5.80
2022-09-18T01:55:33.019Z,5.80
2022-09-18T01:58:03.713Z,3.40
2022-09-18T02:00:32.137Z,7.00
2022-09-18T02:03:03.138Z,9.00
2022-09-18T02:05:35.814Z,4.60
2022-09-18T02:08:08.118Z,2.60
2022-09-18T02:10:38.461Z,6.00
2022-09-18T02:13:07.576Z,6.60
2022-09-18T02:15:36.993Z,7.20
2022-09-18T02:18:07.986Z,4.30
2022-09-18T02:20:37.197Z,5.60
2022-09-18T02:23:06.486Z,4.60
2022-09-18T02:25:41.654Z,4.90
2022-09-18T02:28:09.690Z,7.00
2022-09-18T02:30:39.220Z,4.90
2022-09-18T02:33:25.865Z,2.00
2022-09-18T02:36:02.267Z,6.20
2022-09-18T02:38:34.134Z,4.80
2022-09-18T02:41:07.699Z,6.20
2022-09-18T02:43:38.215Z,4.20
2022-09-18T02:46:08.827Z,6.40
2022-09-18T02:48:43.297Z,5.20
2022-09-18T02:51:37.439Z,4.00
2022-09-18T02:54:08.120Z,4.30
2022-09-18T02:56:39.161Z,3.50
2022-09-18T02:59:07.027Z,3.60
2022-09-18T03:01:35.121Z,5.80
2022-09-18T03:04:04.912Z,3.20
2022-09-18T03:06:32.673Z,3.50
2022-09-18T03:09:00.565Z,5.60
2022-09-18T03:11:28.408Z,3.20
2022-09-18T03:13:56.273Z,3.50
2022-09-18T03:16:23.936Z,3.90
2022-09-18T03:18:51.798Z,5.50
2022-09-18T03:21:19.567Z,3.40
2022-09-18T03:23:47.397Z,5.60
2022-09-18T03:26:15.090Z,3.20
2022-09-18T03:28:44.593Z,5.60
2022-09-18T03:31:12.277Z,5.00
2022-09-18T03:33:40.839Z,4.50
2022-09-18T03:36:08.748Z,3.00
2022-09-18T03:38:37.967Z,3.00
2022-09-18T03:41:07.201Z,3.60
2022-09-18T03:43:35.175Z,3.90
2022-09-18T03:46:03.446Z,7.00
2022-09-18T03:48:31.230Z,3.90
2022-09-18T03:50:59.075Z,2.60
2022-09-18T03:53:26.824Z,4.60
2022-09-18T03:55:54.664Z,3.70
2022-09-18T03:58:22.634Z,5.90
2022-09-18T04:00:50.866Z,4.00
2022-09-18T04:03:18.629Z,5.10
2022-09-18T04:05:48.218Z,5.00
2022-09-18T04:08:17.150Z,5.40
2022-09-18T04:10:46.947Z,6.20
2022-09-18T04:13:14.627Z,3.20
2022-09-18T04:15:45.653Z,3.10
2022-09-18T04:18:13.896Z,3.60
2022-09-18T04:20:41.603Z,4.00
2022-09-18T04:23:11.613Z,3.10
2022-09-18T04:25:40.316Z,3.00
2022-09-18T04:28:09.661Z,4.80
2022-09-18T04:30:38.026Z,5.30
2022-09-18T04:33:05.816Z,5.20
2022-09-18T04:35:33.669Z,3.00
2022-09-18T04:38:01.434Z,5.50
2022-09-18T04:40:29.595Z,4.00
2022-09-18T04:42:59.313Z,3.90
2022-09-18T04:45:27.593Z,5.60
2022-09-18T04:47:55.360Z,4.40
2022-09-18T04:50:23.323Z,3.50
2022-09-18T04:52:51.191Z,5.00
2022-09-18T04:55:19.982Z,3.20
2022-09-18T04:57:50.105Z,3.40
2022-09-18T05:00:21.554Z,4.80
2022-09-18T05:02:49.937Z,4.40
2022-09-18T05:05:17.609Z,4.00
2022-09-18T05:07:45.350Z,5.30
2022-09-18T05:10:13.115Z,4.00
2022-09-18T05:12:41.394Z,5.40
2022-09-18T05:15:09.459Z,7.50
2022-09-18T05:17:40.115Z,4.70
2022-09-18T05:20:08.830Z,5.30
2022-09-18T05:22:37.082Z,5.70
2022-09-18T05:25:05.534Z,4.80
2022-09-18T05:27:33.915Z,4.10
2022-09-18T05:30:02.000Z,4.30
2022-09-18T05:32:29.779Z,7.30
2022-09-18T05:34:57.495Z,7.50
2022-09-18T05:37:25.274Z,5.80
2022-09-18T05:39:53.114Z,4.90
2022-09-18T05:42:20.905Z,8.50
2022-09-18T05:44:48.675Z,5.90
2022-09-18T05:47:16.331Z,6.10
2022-09-18T05:49:44.000Z,7.70
2022-09-18T05:52:12.161Z,7.80
2022-09-18T05:54:39.826Z,6.80
2022-09-18T05:57:07.877Z,7.80
2022-09-18T05:59:35.759Z,7.60
2022-09-18T06:02:04.883Z,8.90
2022-09-18T06:04:32.808Z,8.50
2022-09-18T06:07:03.270Z,10.20
2022-09-18T06:09:33.037Z,8.10
2022-09-18T06:12:02.179Z,8.00
2022-09-18T06:14:29.917Z,6.70
2022-09-18T06:16:57.889Z,8.90
2022-09-18T06:19:26.185Z,9.30
2022-09-18T06:21:54.439Z,7.40
2022-09-18T06:24:22.509Z,9.60
2022-09-18T06:26:50.272Z,8.50
2022-09-18T06:29:20.495Z,7.10
2022-09-18T06:31:48.235Z,7.20
2022-09-18T06:34:16.123Z,6.80
2022-09-18T06:36:43.889Z,7.20
2022-09-18T06:39:12.586Z,7.00
2022-09-18T06:41:40.380Z,8.10
2022-09-18T06:44:08.509Z,9.70
2022-09-18T06:46:38.120Z,11.30
2022-09-18T06:49:07.629Z,14.40
2022-09-18T06:51:36.024Z,10.40
2022-09-18T06:54:03.881Z,7.70
2022-09-18T06:56:31.834Z,9.20
2022-09-18T06:58:59.550Z,8.20
2022-09-18T07:01:28.635Z,8.30
2022-09-18T07:03:56.967Z,8.40
2022-09-18T07:06:26.886Z,10.00
2022-09-18T07:08:55.676Z,10.10
2022-09-18T07:11:23.433Z,8.90
2022-09-18T07:13:53.768Z,10.90
2022-09-18T07:16:21.950Z,11.10
2022-09-18T07:18:49.889Z,9.60
2022-09-18T07:21:17.614Z,8.70
2022-09-18T07:23:45.354Z,8.10
2022-09-18T07:26:13.724Z,8.80
2022-09-18T07:28:41.542Z,8.40
2022-09-18T07:31:11.770Z,6.10
2022-09-18T07:33:40.663Z,7.70
2022-09-18T07:36:08.498Z,6.50
2022-09-18T07:38:36.206Z,5.90
2022-09-18T07:41:05.118Z,6.90
2022-09-18T07:43:33.071Z,7.20
2022-09-18T07:46:01.365Z,7.00
2022-09-18T07:48:30.027Z,8.20
2022-09-18T07:50:58.714Z,9.40
2022-09-18T07:53:27.497Z,8.30
2022-09-18T07:55:57.662Z,7.60
2022-09-18T07:58:25.486Z,9.10
2022-09-18T08:00:53.286Z,7.10
2022-09-18T08:03:22.825Z,4.80
2022-09-18T08:05:52.766Z,6.50
2022-09-18T08:08:20.633Z,3.80
2022-09-18T08:10:48.530Z,2.70
2022-09-18T08:13:17.482Z,3.40
2022-09-18T08:15:45.257Z,8.30
2022-09-18T08:18:14.642Z,8.10
2022-09-18T08:20:43.258Z,7.00
2022-09-18T08:23:11.646Z,6.30
2022-09-18T08:25:39.897Z,3.70
2022-09-18T08:28:09.734Z,10.60
2022-09-18T08:30:39.628Z,17.10
2022-09-18T08:33:09.538Z,3.80
2022-09-18T08:35:38.739Z,6.70
2022-09-18T08:38:12.432Z,4.80
2022-09-18T08:40:45.327Z,5.20
2022-09-18T08:43:36.225Z,6.40
2022-09-18T08:46:10.900Z,7.00
2022-09-18T08:48:46.604Z,6.40
2022-09-18T08:51:31.174Z,4.30
2022-09-18T08:54:11.289Z,4.80
2022-09-18T08:56:41.531Z,3.80
2022-09-18T08:59:33.262Z,3.30
2022-09-18T09:02:25.357Z,13.20
2022-09-18T09:04:59.458Z,11.20
2022-09-18T09:07:48.079Z,13.40
2022-09-18T09:10:36.491Z,16.90
2022-09-18T09:13:24.892Z,4.90
2022-09-18T09:16:04.509Z,9.80
2022-09-18T09:18:38.299Z,6.80
2022-09-18T09:21:18.568Z,4.90
2022-09-18T09:24:01.274Z,3.00
2022-09-18T09:26:33.601Z,3.00
2022-09-18T09:29:23.004Z,2.50
2022-09-18T09:31:54.763Z,4.00
2022-09-18T09:34:32.310Z,2.30
2022-09-18T09:37:06.735Z,3.90
2022-09-18T09:40:07.052Z,3.60
2022-09-18T09:42:42.509Z,5.30
2022-09-18T09:45:21.999Z,4.30
2022-09-18T09:47:52.231Z,5.10
2022-09-18T09:50:35.826Z,8.30
2022-09-18T09:53:12.228Z,6.20
2022-09-18T09:56:02.268Z,5.40
2022-09-18T09:58:36.105Z,9.00
2022-09-18T10:01:15.816Z,6.00
2022-09-18T10:03:54.829Z,9.60
2022-09-18T10:06:31.350Z,10.60
2022-09-18T10:09:07.158Z,9.70
2022-09-18T10:11:39.784Z,9.70
2022-09-18T10:14:17.028Z,10.20
2022-09-18T10:16:51.894Z,8.60
2022-09-18T10:19:22.634Z,7.90
2022-09-18T10:21:51.715Z,8.40
2022-09-18T10:24:31.988Z,12.40
2022-09-18T10:27:02.813Z,9.30
2022-09-18T10:29:35.771Z,8.80
2022-09-18T10:32:06.463Z,12.10
2022-09-18T10:35:01.846Z,10.60
2022-09-18T10:37:30.736Z,12.00
2022-09-18T10:40:02.553Z,21.00
2022-09-18T10:42:33.041Z,18.60
2022-09-18T10:45:06.662Z,19.20
2022-09-18T10:47:36.555Z,9.50
2022-09-18T10:50:09.021Z,9.50
2022-09-18T10:52:43.545Z,12.60
2022-09-18T10:55:21.805Z,7.50
2022-09-18T10:57:54.749Z,10.70
2022-09-18T11:00:27.458Z,9.20
2022-09-18T11:03:16.075Z,8.30
2022-09-18T11:05:52.287Z,10.50
2022-09-18T11:08:23.492Z,8.80
2022-09-18T11:11:00.095Z,10.90
2022-09-18T11:13:31.190Z,11.30
2022-09-18T11:16:02.960Z,10.40
2022-09-18T11:18:33.566Z,11.50
2022-09-18T11:21:05.390Z,9.80
2022-09-18T11:23:35.340Z,12.50
2022-09-18T11:26:13.394Z,7.80
2022-09-18T11:28:42.006Z,10.10
2022-09-18T11:31:12.039Z,9.80
2022-09-18T11:33:46.511Z,11.70
2022-09-18T11:36:23.254Z,10.90
2022-09-18T11:38:51.854Z,12.90
2022-09-18T11:41:25.630Z,13.60
2022-09-18T11:44:04.004Z,13.60
2022-09-18T11:46:45.353Z,12.70
2022-09-18T11:49:16.351Z,12.20
2022-09-18T11:51:46.135Z,9.00
2022-09-18T11:54:33.424Z,11.60
2022-09-18T11:57:04.229Z,10.60
2022-09-18T11:59:57.586Z,12.10
2022-09-18T12:02:38.302Z,12.20
2022-09-18T12:05:25.594Z,11.60
2022-09-18T12:07:56.088Z,11.10
2022-09-18T12:10:27.631Z,9.50
2022-09-18T12:12:56.534Z,11.30
2022-09-18T12:15:28.487Z,9.10
2022-09-18T12:18:03.198Z,10.10
2022-09-18T12:20:36.809Z,8.20
2022-09-18T12:23:06.195Z,9.20
2022-09-18T12:25:40.100Z,10.20
2022-09-18T12:28:14.753Z,9.70
2022-09-18T12:30:45.870Z,10.20
2022-09-18T12:33:17.429Z,10.30
2022-09-18T12:36:06.482Z,8.70
2022-09-18T12:38:34.553Z,7.30
2022-09-18T12:41:11.508Z,9.40
2022-09-18T12:43:50.523Z,9.30
2022-09-18T12:46:45.616Z,7.20
2022-09-18T12:49:52.384Z,8.00
2022-09-18T12:52:27.750Z,7.10
2022-09-18T12:55:14.514Z,8.20
2022-09-18T12:57:42.808Z,7.80
2022-09-18T13:00:16.372Z,8.30
2022-09-18T13:02:51.524Z,8.60
2022-09-18T13:05:28.338Z,8.70
2022-09-18T13:08:03.342Z,9.90
2022-09-18T13:13:03.471Z,7.00
2022-09-18T13:15:37.088Z,6.70
2022-09-18T13:18:17.242Z,10.70
2022-09-18T13:20:47.159Z,6.60
2022-09-18T13:23:20.347Z,8.80
2022-09-18T13:25:51.890Z,7.20
2022-09-18T13:28:21.699Z,6.70
2022-09-18T13:31:09.581Z,8.60
2022-09-18T13:33:38.012Z,6.70
2022-09-18T13:36:09.748Z,4.40
2022-09-18T13:38:43.159Z,5.80
2022-09-18T13:41:12.359Z,4.70
2022-09-18T13:43:59.471Z,6.40
2022-09-18T13:46:29.550Z,5.00
2022-09-18T13:48:58.693Z,7.10
2022-09-18T13:51:31.436Z,7.00
2022-09-18T13:54:16.782Z,7.00
2022-09-18T13:57:04.862Z,5.60
2022-09-18T13:59:53.993Z,7.10
2022-09-18T14:02:27.492Z,5.80
2022-09-18T14:04:59.906Z,4.60
2022-09-18T14:07:30.433Z,5.50
2022-09-18T14:10:04.158Z,6.80
2022-09-18T14:12:34.051Z,9.90
2022-09-18T14:15:21.164Z,4.10
2022-09-18T14:18:07.529Z,4.50
2022-09-18T14:20:35.694Z,3.90
2022-09-18T14:23:22.648Z,4.50
2022-09-18T14:25:50.922Z,5.60
2022-09-18T14:28:21.579Z,6.70
2022-09-18T14:31:08.601Z,6.10
2022-09-18T14:33:36.459Z,4.60
2022-09-18T14:36:05.968Z,6.00
2022-09-18T14:38:38.618Z,5.10
2022-09-18T14:41:21.542Z,5.50
2022-09-18T14:43:49.816Z,7.40
2022-09-18T14:46:19.123Z,3.40
2022-09-18T14:48:47.708Z,3.40
2022-09-18T14:51:25.960Z,6.90
2022-09-18T14:53:56.442Z,3.30
2022-09-18T14:56:33.276Z,5.30
2022-09-18T14:59:05.790Z,4.40
2022-09-18T15:01:34.576Z,4.80
2022-09-18T15:04:04.207Z,4.60
2022-09-18T15:06:32.174Z,5.10
2022-09-18T15:09:00.812Z,5.10
2022-09-18T15:11:37.731Z,5.40
2022-09-18T15:14:22.948Z,3.10
2022-09-18T15:16:57.105Z,5.20
2022-09-18T15:19:27.370Z,4.00
2022-09-18T15:21:57.674Z,2.80
2022-09-18T15:24:27.637Z,2.80
2022-09-18T15:27:01.886Z,3.40
2022-09-18T15:29:39.398Z,2.70
2022-09-18T15:32:09.823Z,3.00
2022-09-18T15:34:43.839Z,7.80
2022-09-18T15:37:17.850Z,3.70
2022-09-18T15:39:48.523Z,5.10
2022-09-18T15:42:25.669Z,2.70
2022-09-18T15:44:59.685Z,2.70
2022-09-18T15:47:31.125Z,2.00
2022-09-18T15:50:00.027Z,4.20
2022-09-18T15:52:47.860Z,2.90
2022-09-18T15:55:23.300Z,1.70
2022-09-18T15:57:52.801Z,4.10
2022-09-18T16:00:22.551Z,5.00
2022-09-18T16:02:51.927Z,4.50
2022-09-18T16:05:21.580Z,2.40
2022-09-18T16:07:57.766Z,4.30
2022-09-18T16:10:35.685Z,3.00
2022-09-18T16:13:27.920Z,3.20
2022-09-18T16:16:08.551Z,5.60
2022-09-18T16:18:52.559Z,4.70
2022-09-18T16:21:21.320Z,3.80
2022-09-18T16:23:59.555Z,3.30
2022-09-18T16:26:36.951Z,2.50
2022-09-18T16:29:07.425Z,2.80
2022-09-18T16:31:37.782Z,3.40
2022-09-18T16:34:23.993Z,4.70
2022-09-18T16:36:54.941Z,3.80
2022-09-18T16:39:25.235Z,3.70
2022-09-18T16:41:54.731Z,4.00
2022-09-18T16:44:25.761Z,4.30
2022-09-18T16:47:01.413Z,3.90
2022-09-18T16:49:36.744Z,4.50
2022-09-18T16:52:07.941Z,4.30
2022-09-18T16:54:38.118Z,1.60
2022-09-18T16:57:20.182Z,1.80
2022-09-18T16:59:50.514Z,4.70
2022-09-18T17:02:24.364Z,3.20
2022-09-18T17:04:56.132Z,4.20
2022-09-18T17:07:25.509Z,3.50
2022-09-18T17:09:53.886Z,2.80
2022-09-18T17:12:23.062Z,3.60
2022-09-18T17:14:53.816Z,2.20
2022-09-18T17:17:21.972Z,3.70
2022-09-18T17:19:51.330Z,2.00
2022-09-18T17:22:22.741Z,4.40
2022-09-18T17:24:52.966Z,3.60
2022-09-18T17:27:22.956Z,1.80
2022-09-18T17:29:52.817Z,1.80
2022-09-18T17:32:22.438Z,2.50
2022-09-18T17:34:51.083Z,3.40
2022-09-18T17:37:19.308Z,1.70
2022-09-18T17:39:52.576Z,2.20
2022-09-18T17:42:21.444Z,4.60
2022-09-18T17:44:53.317Z,3.00
2022-09-18T17:47:23.527Z,1.90
2022-09-18T17:49:51.603Z,1.50
2022-09-18T17:52:20.589Z,1.00
2022-09-18T17:54:49.492Z,4.30
2022-09-18T17:57:18.267Z,3.80
2022-09-18T17:59:48.499Z,2.50
2022-09-18T18:02:17.858Z,2.40
2022-09-18T18:04:47.091Z,4.70
2022-09-18T18:07:16.784Z,5.40
2022-09-18T18:09:47.216Z,3.70
2022-09-18T18:12:15.181Z,6.50
2022-09-18T18:14:44.491Z,5.10
2022-09-18T18:17:16.465Z,3.10
2022-09-18T18:19:48.431Z,5.80
2022-09-18T18:22:18.427Z,3.10
2022-09-18T18:24:48.480Z,2.30
2022-09-18T18:27:21.731Z,6.20
2022-09-18T18:29:53.127Z,3.70
2022-09-18T18:32:22.891Z,3.60
2022-09-18T18:34:51.788Z,3.50
2022-09-18T18:37:21.420Z,2.60
2022-09-18T18:39:50.400Z,3.70
2022-09-18T18:42:20.444Z,2.90
2022-09-18T18:44:51.337Z,3.90
2022-09-18T18:47:21.385Z,2.70
2022-09-18T18:49:51.680Z,4.70
2022-09-18T18:52:23.808Z,5.90
2022-09-18T18:54:54.234Z,4.20
2022-09-18T18:57:23.517Z,4.30
2022-09-18T18:59:52.280Z,5.10
2022-09-18T19:02:21.358Z,4.70
2022-09-18T19:04:49.725Z,3.90
2022-09-18T19:07:18.000Z,4.30
2022-09-18T19:09:46.686Z,3.60
2022-09-18T19:12:17.838Z,4.00
2022-09-18T19:14:45.900Z,5.50
2022-09-18T19:17:17.148Z,6.20
2022-09-18T19:19:45.858Z,4.00
2022-09-18T19:22:19.325Z,5.20
2022-09-18T19:24:49.039Z,3.60
2022-09-18T19:27:18.704Z,7.60
2022-09-18T19:29:49.748Z,5.10
2022-09-18T19:32:21.934Z,6.50
2022-09-18T19:34:50.218Z,4.50
2022-09-18T19:37:18.465Z,4.10
2022-09-18T19:39:49.651Z,5.40
2022-09-18T19:42:17.927Z,5.00
2022-09-18T19:44:47.532Z,3.60
2022-09-18T19:47:19.503Z,7.30
2022-09-18T19:49:49.262Z,4.90
2022-09-18T19:52:20.151Z,6.00
2022-09-18T19:54:49.950Z,5.30
2022-09-18T19:57:18.541Z,5.40
2022-09-18T19:59:47.849Z,5.90
2022-09-18T20:02:19.739Z,5.20
2022-09-18T20:04:48.908Z,4.00
2022-09-18T20:07:17.382Z,4.30
2022-09-18T20:09:46.162Z,4.20
2022-09-18T20:12:14.749Z,4.70
2022-09-18T20:14:44.610Z,3.70
2022-09-18T20:17:14.231Z,3.40
2022-09-18T20:19:44.385Z,2.20
2022-09-18T20:22:16.047Z,4.00
2022-09-18T20:24:44.850Z,4.70
2022-09-18T20:27:15.761Z,2.70
2022-09-18T20:29:44.359Z,3.40
2022-09-18T20:32:13.440Z,3.30
2022-09-18T20:34:47.797Z,3.50
2022-09-18T20:37:18.799Z,2.90
2022-09-18T20:39:48.939Z,3.40
2022-09-18T20:42:17.720Z,3.80
2022-09-18T20:44:46.725Z,3.70
2022-09-18T20:47:16.637Z,2.20
2022-09-18T20:49:46.631Z,3.30
2022-09-18T20:52:16.239Z,2.70
2022-09-18T20:54:45.334Z,3.40
2022-09-18T20:57:14.823Z,5.80
2022-09-18T20:59:44.656Z,2.80
2022-09-18T21:02:14.577Z,2.50
2022-09-18T21:04:47.276Z,3.10
2022-09-18T21:07:16.188Z,4.40
2022-09-18T21:09:45.159Z,4.70
2022-09-18T21:12:15.569Z,3.40
2022-09-18T21:14:45.083Z,4.10
2022-09-18T21:17:13.469Z,3.40
2022-09-18T21:19:42.013Z,1.70
2022-09-18T21:22:09.993Z,2.80
2022-09-18T21:24:37.949Z,3.80
2022-09-18T21:27:06.944Z,2.90
2022-09-18T21:29:35.344Z,4.00
2022-09-18T21:32:03.289Z,1.90
2022-09-18T21:34:31.769Z,4.50
2022-09-18T21:37:03.462Z,2.90
2022-09-18T21:39:32.621Z,3.50
2022-09-18T21:42:01.637Z,2.40
2022-09-18T21:44:31.969Z,2.60
2022-09-18T21:47:02.238Z,3.90
2022-09-18T21:49:30.848Z,2.10
2022-09-18T21:52:01.454Z,2.60
2022-09-18T21:54:30.493Z,2.40
2022-09-18T21:56:58.659Z,2.50
2022-09-18T21:59:28.943Z,2.00
2022-09-18T22:01:58.048Z,2.70
2022-09-18T22:04:29.922Z,4.00
2022-09-18T22:07:00.467Z,5.10
2022-09-18T22:09:33.025Z,3.40
2022-09-18T22:12:04.209Z,3.50
2022-09-18T22:14:33.365Z,2.60
2022-09-18T22:17:01.947Z,3.60
2022-09-18T22:19:29.854Z,3.00
2022-09-18T22:21:57.477Z,4.00
2022-09-18T22:24:26.365Z,4.10
2022-09-18T22:26:55.562Z,6.00
2022-09-18T22:29:27.779Z,2.80
2022-09-18T22:31:55.901Z,2.30
2022-09-18T22:34:24.690Z,3.00
2022-09-18T22:36:52.275Z,2.30
2022-09-18T22:39:21.343Z,2.90
2022-09-18T22:41:53.251Z,3.90
2022-09-18T22:44:22.842Z,3.00
2022-09-18T22:46:54.410Z,3.90
2022-09-18T22:49:22.967Z,2.80
2022-09-18T22:51:51.322Z,3.90
2022-09-18T22:54:24.464Z,3.50
2022-09-18T22:56:52.689Z,2.30
2022-09-18T22:59:22.605Z,2.80
2022-09-18T23:01:54.708Z,3.70
2022-09-18T23:04:23.736Z,4.30
2022-09-18T23:06:51.550Z,3.70
2022-09-18T23:09:19.595Z,2.30
2022-09-18T23:11:49.593Z,4.90
2022-09-18T23:14:20.610Z,3.00
2022-09-18T23:16:49.237Z,3.00
2022-09-18T23:19:18.832Z,2.20
2022-09-18T23:21:46.607Z,3.00
2022-09-18T23:24:16.235Z,4.00
2022-09-18T23:26:45.899Z,3.40
2022-09-18T23:29:18.374Z,4.70
2022-09-18T23:31:50.553Z,3.00
2022-09-18T23:34:20.374Z,3.30
2022-09-18T23:36:49.824Z,4.30
2022-09-18T23:39:22.659Z,4.10
2022-09-18T23:41:51.144Z,3.00
2022-09-18T23:44:20.134Z,3.70
2022-09-18T23:46:48.245Z,2.20
2022-09-18T23:49:17.281Z,5.40
2022-09-18T23:51:48.750Z,2.10
2022-09-18T23:54:18.484Z,3.60
2022-09-18T23:56:46.551Z,5.60
2022-09-18T23:59:15.992Z,1.90
